sensor_id;sensor_type;location;lat;lon;timestamp;pressure;altitude;pressure_sealevel;temperature;humidity
74913;BME280;63878;55.624;37.304;2023-11-21T00:03:11;98462.66;;;-9.19;59.97
74913;BME280;63878;55.624;37.304;2023-11-21T00:13:12;98470.19;;;-9.06;60.95
74913;BME280;63878;55.624;37.304;2023-11-21T00:23:12;98482.13;;;-9.15;59.93
74913;BME280;63878;55.624;37.304;2023-11-21T00:33:13;98468.59;;;-9.18;60.48
74913;BME280;63878;55.624;37.304;2023-11-21T00:43:13;98461.09;;;-9.38;59.86
74913;BME280;63878;55.624;37.304;2023-11-21T00:53:32;98454.38;;;-9.45;59.94
74913;BME280;63878;55.624;37.304;2023-11-21T01:03:33;98464.38;;;-9.21;59.77
74913;BME280;63878;55.624;37.304;2023-11-21T01:13:34;98456.16;;;-9.55;60.74
74913;BME280;63878;55.624;37.304;2023-11-21T01:23:34;98454.06;;;-9.04;60.12
74913;BME280;63878;55.624;37.304;2023-11-21T01:33:35;98468.47;;;-9.04;59.12
74913;BME280;63878;55.624;37.304;2023-11-21T01:43:35;98474.69;;;-9.44;60.70
74913;BME280;63878;55.624;37.304;2023-11-21T01:53:36;98462.94;;;-9.55;59.47
74913;BME280;63878;55.624;37.304;2023-11-21T02:03:37;98463.88;;;-9.73;59.91
74913;BME280;63878;55.624;37.304;2023-11-21T02:13:37;98474.78;;;-9.54;58.98
74913;BME280;63878;55.624;37.304;2023-11-21T02:23:38;98479.16;;;-9.78;58.96
74913;BME280;63878;55.624;37.304;2023-11-21T02:33:38;98466.41;;;-9.76;59.85
74913;BME280;63878;55.624;37.304;2023-11-21T02:43:38;98426.16;;;-10.48;59.26
74913;BME280;63878;55.624;37.304;2023-11-21T02:53:39;98485.72;;;-9.43;57.33
74913;BME280;63878;55.624;37.304;2023-11-21T03:03:39;98486.81;;;-9.87;57.80
74913;BME280;63878;55.624;37.304;2023-11-21T03:13:40;98506.25;;;-9.75;57.41
74913;BME280;63878;55.624;37.304;2023-11-21T03:23:41;98510.44;;;-9.66;57.03
74913;BME280;63878;55.624;37.304;2023-11-21T03:33:41;98520.91;;;-10.40;58.41
74913;BME280;63878;55.624;37.304;2023-11-21T03:43:42;98519.78;;;-9.76;58.14
74913;BME280;63878;55.624;37.304;2023-11-21T03:53:42;61689.75;;;-146.74;100.00
74913;BME280;63878;55.624;37.304;2023-11-21T04:03:43;61689.75;;;-146.74;100.00
74913;BME280;63878;55.624;37.304;2023-11-21T04:13:43;61689.75;;;-146.74;100.00
74913;BME280;63878;55.624;37.304;2023-11-21T13:48:13;98703.94;;;20.41;27.73
74913;BME280;63878;55.624;37.304;2023-11-21T13:58:14;98711.97;;;20.69;26.37
74913;BME280;63878;55.624;37.304;2023-11-21T14:08:19;98718.81;;;9.28;17.63
74913;BME280;63878;55.624;37.304;2023-11-21T14:18:20;98781.16;;;-6.02;43.41
74913;BME280;63878;55.624;37.304;2023-11-21T14:28:21;98772.63;;;-8.39;50.50
74913;BME280;63878;55.624;37.304;2023-11-21T14:38:22;98775.34;;;-8.67;51.73
74913;BME280;63878;55.624;37.304;2023-11-21T14:48:23;98800.94;;;-9.16;54.22
74913;BME280;63878;55.624;37.304;2023-11-21T14:58:24;98817.03;;;-9.10;54.18
74913;BME280;63878;55.624;37.304;2023-11-21T15:08:25;98816.00;;;-8.56;53.97
74913;BME280;63878;55.624;37.304;2023-11-21T15:18:26;98823.88;;;-9.51;55.59
74913;BME280;63878;55.624;37.304;2023-11-21T15:28:27;98828.03;;;-9.02;55.13
74913;BME280;63878;55.624;37.304;2023-11-21T15:38:30;98822.13;;;-9.06;55.35
74913;BME280;63878;55.624;37.304;2023-11-21T15:48:31;98822.13;;;-8.95;55.35
74913;BME280;63878;55.624;37.304;2023-11-21T15:58:32;98817.09;;;-9.38;56.00
74913;BME280;63878;55.624;37.304;2023-11-21T16:08:32;98827.28;;;-9.32;56.73
74913;BME280;63878;55.624;37.304;2023-11-21T16:18:33;98824.69;;;-9.07;55.50
74913;BME280;63878;55.624;37.304;2023-11-21T16:28:34;98813.69;;;-9.31;55.27
74913;BME280;63878;55.624;37.304;2023-11-21T16:38:34;98835.72;;;-9.11;55.02
74913;BME280;63878;55.624;37.304;2023-11-21T16:48:35;98847.59;;;-9.32;56.33
74913;BME280;63878;55.624;37.304;2023-11-21T16:58:36;98843.38;;;-9.41;56.64
74913;BME280;63878;55.624;37.304;2023-11-21T17:08:37;98853.53;;;-9.36;57.30
74913;BME280;63878;55.624;37.304;2023-11-21T17:18:37;98838.28;;;-9.57;56.75
74913;BME280;63878;55.624;37.304;2023-11-21T17:28:38;98845.09;;;-9.81;57.11
74913;BME280;63878;55.624;37.304;2023-11-21T17:38:38;98842.41;;;-8.74;53.85
74913;BME280;63878;55.624;37.304;2023-11-21T17:48:39;98835.56;;;-8.60;54.48
74913;BME280;63878;55.624;37.304;2023-11-21T17:58:40;98847.41;;;-8.57;54.80
74913;BME280;63878;55.624;37.304;2023-11-21T18:08:41;98842.50;;;-9.30;54.95
74913;BME280;63878;55.624;37.304;2023-11-21T18:18:41;98869.66;;;-9.46;56.68
74913;BME280;63878;55.624;37.304;2023-11-21T18:28:42;98858.63;;;-9.56;58.28
74913;BME280;63878;55.624;37.304;2023-11-21T18:38:43;98866.25;;;-9.80;58.33
74913;BME280;63878;55.624;37.304;2023-11-21T18:48:44;98866.25;;;-9.80;59.06
74913;BME280;63878;55.624;37.304;2023-11-21T18:58:44;98866.25;;;-9.71;58.21
74913;BME280;63878;55.624;37.304;2023-11-21T19:08:45;98865.41;;;-9.82;59.53
74913;BME280;63878;55.624;37.304;2023-11-21T19:18:45;98876.44;;;-9.82;59.24
74913;BME280;63878;55.624;37.304;2023-11-21T19:28:46;98877.28;;;-9.75;60.26
74913;BME280;63878;55.624;37.304;2023-11-21T19:38:46;98887.41;;;-9.86;58.24
74913;BME280;63878;55.624;37.304;2023-11-21T19:48:47;98887.41;;;-9.77;59.07
74913;BME280;63878;55.624;37.304;2023-11-21T19:58:48;98884.06;;;-9.54;59.89
74913;BME280;63878;55.624;37.304;2023-11-21T20:08:48;98884.88;;;-9.78;59.09
74913;BME280;63878;55.624;37.304;2023-11-21T20:18:49;98889.13;;;-9.70;58.12
74913;BME280;63878;55.624;37.304;2023-11-21T20:28:49;98895.06;;;-9.75;59.43
74913;BME280;63878;55.624;37.304;2023-11-21T20:38:50;98890.75;;;-10.10;60.11
74913;BME280;63878;55.624;37.304;2023-11-21T20:48:50;98904.31;;;-10.06;59.87
74913;BME280;63878;55.624;37.304;2023-11-21T20:58:51;98903.41;;;-10.16;60.12
74913;BME280;63878;55.624;37.304;2023-11-21T21:08:51;98914.41;;;-10.28;61.46
74913;BME280;63878;55.624;37.304;2023-11-21T21:18:56;98927.06;;;-10.32;61.46
74913;BME280;63878;55.624;37.304;2023-11-21T21:28:56;98922.69;;;-10.71;63.54
74913;BME280;63878;55.624;37.304;2023-11-21T21:38:57;98921.09;;;-10.54;61.99
74913;BME280;63878;55.624;37.304;2023-11-21T21:48:58;98927.03;;;-10.54;62.86
74913;BME280;63878;55.624;37.304;2023-11-21T21:58:59;98922.84;;;-10.32;61.58
74913;BME280;63878;55.624;37.304;2023-11-21T22:08:59;98918.56;;;-10.51;62.54
74913;BME280;63878;55.624;37.304;2023-11-21T22:18:59;98916.06;;;-10.46;63.35
74913;BME280;63878;55.624;37.304;2023-11-21T22:29:00;98918.66;;;-10.22;62.87
74913;BME280;63878;55.624;37.304;2023-11-21T22:39:00;98930.47;;;-10.39;64.40
74913;BME280;63878;55.624;37.304;2023-11-21T22:49:01;98936.34;;;-10.48;64.85
74913;BME280;63878;55.624;37.304;2023-11-21T22:59:02;98948.16;;;-10.53;63.67
74913;BME280;63878;55.624;37.304;2023-11-21T23:09:02;98949.91;;;-10.47;64.19
74913;BME280;63878;55.624;37.304;2023-11-21T23:19:03;98948.91;;;-10.71;64.10
74913;BME280;63878;55.624;37.304;2023-11-21T23:29:04;98955.81;;;-10.44;64.35
74913;BME280;63878;55.624;37.304;2023-11-21T23:39:07;98962.66;;;-10.28;63.80
74913;BME280;63878;55.624;37.304;2023-11-21T23:49:08;98953.38;;;-10.21;63.59
74913;BME280;63878;55.624;37.304;2023-11-21T23:59:08;98945.69;;;-10.39;64.85
